sensor_id;sensor_type;location;lat;lon;timestamp;P1;durP1;ratioP1;P2;durP2;ratioP2
52730;SDS011;38624;53.242;6.974;2023-04-15T00:02:00;11.82;;;6.72;;
52730;SDS011;38624;53.242;6.974;2023-04-15T00:04:28;13.65;;;6.65;;
52730;SDS011;38624;53.242;6.974;2023-04-15T00:06:55;10.60;;;6.53;;
52730;SDS011;38624;53.242;6.974;2023-04-15T00:09:21;11.82;;;6.88;;
52730;SDS011;38624;53.242;6.974;2023-04-15T00:11:47;11.98;;;6.68;;
52730;SDS011;38624;53.242;6.974;2023-04-15T00:14:14;10.90;;;6.43;;
52730;SDS011;38624;53.242;6.974;2023-04-15T00:16:40;13.90;;;7.17;;
52730;SDS011;38624;53.242;6.974;2023-04-15T00:19:06;10.82;;;7.10;;
52730;SDS011;38624;53.242;6.974;2023-04-15T00:21:31;12.77;;;6.97;;
52730;SDS011;38624;53.242;6.974;2023-04-15T00:23:57;11.82;;;6.82;;
52730;SDS011;38624;53.242;6.974;2023-04-15T00:26:23;13.13;;;6.85;;
52730;SDS011;38624;53.242;6.974;2023-04-15T00:28:48;12.27;;;7.00;;
52730;SDS011;38624;53.242;6.974;2023-04-15T00:31:14;11.88;;;7.20;;
52730;SDS011;38624;53.242;6.974;2023-04-15T00:33:40;15.38;;;7.55;;
52730;SDS011;38624;53.242;6.974;2023-04-15T00:36:06;11.52;;;7.68;;
52730;SDS011;38624;53.242;6.974;2023-04-15T00:38:32;13.60;;;7.90;;
52730;SDS011;38624;53.242;6.974;2023-04-15T00:40:58;14.30;;;7.32;;
52730;SDS011;38624;53.242;6.974;2023-04-15T00:43:24;14.38;;;7.80;;
52730;SDS011;38624;53.242;6.974;2023-04-15T00:45:51;13.55;;;7.90;;
52730;SDS011;38624;53.242;6.974;2023-04-15T00:48:19;11.88;;;7.50;;
52730;SDS011;38624;53.242;6.974;2023-04-15T00:50:45;13.52;;;7.75;;
52730;SDS011;38624;53.242;6.974;2023-04-15T00:53:10;12.77;;;7.57;;
52730;SDS011;38624;53.242;6.974;2023-04-15T00:55:36;11.52;;;8.10;;
52730;SDS011;38624;53.242;6.974;2023-04-15T00:58:02;12.15;;;8.13;;
52730;SDS011;38624;53.242;6.974;2023-04-15T01:00:28;14.65;;;8.50;;
52730;SDS011;38624;53.242;6.974;2023-04-15T01:02:54;12.82;;;8.70;;
52730;SDS011;38624;53.242;6.974;2023-04-15T01:05:20;15.07;;;8.18;;
52730;SDS011;38624;53.242;6.974;2023-04-15T01:07:47;11.60;;;8.48;;
52730;SDS011;38624;53.242;6.974;2023-04-15T01:10:12;13.75;;;8.80;;
52730;SDS011;38624;53.242;6.974;2023-04-15T01:12:38;15.55;;;8.93;;
52730;SDS011;38624;53.242;6.974;2023-04-15T01:15:04;15.05;;;9.20;;
52730;SDS011;38624;53.242;6.974;2023-04-15T01:17:30;16.33;;;9.20;;
52730;SDS011;38624;53.242;6.974;2023-04-15T01:19:56;15.23;;;9.65;;
52730;SDS011;38624;53.242;6.974;2023-04-15T01:22:26;16.40;;;9.23;;
52730;SDS011;38624;53.242;6.974;2023-04-15T01:25:12;14.65;;;9.25;;
52730;SDS011;38624;53.242;6.974;2023-04-15T01:27:46;14.63;;;9.25;;
52730;SDS011;38624;53.242;6.974;2023-04-15T01:30:12;11.88;;;8.50;;
52730;SDS011;38624;53.242;6.974;2023-04-15T01:32:38;15.80;;;9.02;;
52730;SDS011;38624;53.242;6.974;2023-04-15T01:35:04;13.82;;;9.05;;
52730;SDS011;38624;53.242;6.974;2023-04-15T01:37:30;16.08;;;9.82;;
52730;SDS011;38624;53.242;6.974;2023-04-15T01:39:56;14.93;;;8.90;;
52730;SDS011;38624;53.242;6.974;2023-04-15T01:42:22;12.02;;;8.73;;
52730;SDS011;38624;53.242;6.974;2023-04-15T01:44:48;13.57;;;9.00;;
52730;SDS011;38624;53.242;6.974;2023-04-15T01:47:14;15.93;;;9.52;;
52730;SDS011;38624;53.242;6.974;2023-04-15T01:49:39;16.20;;;9.25;;
52730;SDS011;38624;53.242;6.974;2023-04-15T01:52:05;13.35;;;9.00;;
52730;SDS011;38624;53.242;6.974;2023-04-15T01:54:31;16.90;;;9.55;;
52730;SDS011;38624;53.242;6.974;2023-04-15T01:56:57;15.10;;;9.32;;
52730;SDS011;38624;53.242;6.974;2023-04-15T01:59:23;14.15;;;9.65;;
52730;SDS011;38624;53.242;6.974;2023-04-15T02:01:48;14.30;;;9.80;;
52730;SDS011;38624;53.242;6.974;2023-04-15T02:04:14;14.40;;;9.95;;
52730;SDS011;38624;53.242;6.974;2023-04-15T02:06:41;14.65;;;9.70;;
52730;SDS011;38624;53.242;6.974;2023-04-15T02:09:08;12.57;;;9.48;;
52730;SDS011;38624;53.242;6.974;2023-04-15T02:11:34;14.13;;;9.13;;
52730;SDS011;38624;53.242;6.974;2023-04-15T02:16:28;14.95;;;10.48;;
52730;SDS011;38624;53.242;6.974;2023-04-15T02:18:54;14.65;;;9.23;;
52730;SDS011;38624;53.242;6.974;2023-04-15T02:21:20;13.85;;;9.80;;
52730;SDS011;38624;53.242;6.974;2023-04-15T02:23:46;15.87;;;9.83;;
52730;SDS011;38624;53.242;6.974;2023-04-15T02:26:12;16.05;;;10.25;;
52730;SDS011;38624;53.242;6.974;2023-04-15T02:28:38;17.87;;;10.60;;
52730;SDS011;38624;53.242;6.974;2023-04-15T02:31:07;13.85;;;10.07;;
52730;SDS011;38624;53.242;6.974;2023-04-15T02:33:33;15.82;;;9.98;;
52730;SDS011;38624;53.242;6.974;2023-04-15T02:36:01;17.35;;;11.10;;
52730;SDS011;38624;53.242;6.974;2023-04-15T02:38:26;15.25;;;10.40;;
52730;SDS011;38624;53.242;6.974;2023-04-15T02:40:52;16.15;;;10.90;;
52730;SDS011;38624;53.242;6.974;2023-04-15T02:43:18;16.35;;;10.70;;
52730;SDS011;38624;53.242;6.974;2023-04-15T02:45:44;20.20;;;11.27;;
52730;SDS011;38624;53.242;6.974;2023-04-15T02:48:11;17.38;;;11.60;;
52730;SDS011;38624;53.242;6.974;2023-04-15T02:50:36;17.80;;;11.82;;
52730;SDS011;38624;53.242;6.974;2023-04-15T02:53:05;18.00;;;11.82;;
52730;SDS011;38624;53.242;6.974;2023-04-15T02:55:31;18.33;;;11.68;;
52730;SDS011;38624;53.242;6.974;2023-04-15T02:57:57;18.25;;;12.43;;
52730;SDS011;38624;53.242;6.974;2023-04-15T03:02:50;19.88;;;11.63;;
52730;SDS011;38624;53.242;6.974;2023-04-15T03:05:20;18.08;;;12.23;;
52730;SDS011;38624;53.242;6.974;2023-04-15T03:07:49;18.55;;;12.27;;
52730;SDS011;38624;53.242;6.974;2023-04-15T03:10:15;17.88;;;12.20;;
52730;SDS011;38624;53.242;6.974;2023-04-15T03:12:41;21.05;;;12.65;;
52730;SDS011;38624;53.242;6.974;2023-04-15T03:15:07;21.55;;;13.63;;
52730;SDS011;38624;53.242;6.974;2023-04-15T03:17:33;18.83;;;13.23;;
52730;SDS011;38624;53.242;6.974;2023-04-15T03:20:03;20.02;;;13.05;;
52730;SDS011;38624;53.242;6.974;2023-04-15T03:22:30;21.25;;;13.52;;
52730;SDS011;38624;53.242;6.974;2023-04-15T03:24:56;18.50;;;12.55;;
52730;SDS011;38624;53.242;6.974;2023-04-15T03:27:22;17.73;;;12.75;;
52730;SDS011;38624;53.242;6.974;2023-04-15T03:29:48;18.15;;;11.75;;
52730;SDS011;38624;53.242;6.974;2023-04-15T03:32:14;17.85;;;12.35;;
52730;SDS011;38624;53.242;6.974;2023-04-15T03:34:40;19.67;;;11.45;;
52730;SDS011;38624;53.242;6.974;2023-04-15T03:37:06;15.43;;;11.02;;
52730;SDS011;38624;53.242;6.974;2023-04-15T03:39:32;16.85;;;11.35;;
52730;SDS011;38624;53.242;6.974;2023-04-15T03:41:58;18.75;;;11.50;;
52730;SDS011;38624;53.242;6.974;2023-04-15T03:44:25;16.58;;;10.73;;
52730;SDS011;38624;53.242;6.974;2023-04-15T03:46:51;16.17;;;10.73;;
52730;SDS011;38624;53.242;6.974;2023-04-15T03:49:17;15.50;;;10.32;;
52730;SDS011;38624;53.242;6.974;2023-04-15T03:51:44;16.30;;;11.48;;
52730;SDS011;38624;53.242;6.974;2023-04-15T03:54:10;16.60;;;10.60;;
52730;SDS011;38624;53.242;6.974;2023-04-15T03:56:36;15.27;;;10.98;;
52730;SDS011;38624;53.242;6.974;2023-04-15T03:59:02;16.35;;;10.13;;
52730;SDS011;38624;53.242;6.974;2023-04-15T04:01:28;15.88;;;11.48;;
52730;SDS011;38624;53.242;6.974;2023-04-15T04:03:54;15.68;;;10.68;;
52730;SDS011;38624;53.242;6.974;2023-04-15T04:06:20;16.42;;;10.88;;
52730;SDS011;38624;53.242;6.974;2023-04-15T04:08:45;17.20;;;11.43;;
52730;SDS011;38624;53.242;6.974;2023-04-15T04:11:11;16.10;;;10.93;;
52730;SDS011;38624;53.242;6.974;2023-04-15T04:13:37;15.67;;;10.07;;
52730;SDS011;38624;53.242;6.974;2023-04-15T04:16:04;14.40;;;9.82;;
52730;SDS011;38624;53.242;6.974;2023-04-15T04:18:31;15.10;;;10.60;;
52730;SDS011;38624;53.242;6.974;2023-04-15T04:20:57;17.20;;;10.77;;
52730;SDS011;38624;53.242;6.974;2023-04-15T04:23:23;16.48;;;10.63;;
52730;SDS011;38624;53.242;6.974;2023-04-15T04:25:49;15.90;;;10.70;;
52730;SDS011;38624;53.242;6.974;2023-04-15T04:28:15;17.67;;;11.23;;
52730;SDS011;38624;53.242;6.974;2023-04-15T04:30:41;16.85;;;11.13;;
52730;SDS011;38624;53.242;6.974;2023-04-15T04:33:06;16.33;;;10.82;;
52730;SDS011;38624;53.242;6.974;2023-04-15T04:35:32;17.55;;;11.27;;
52730;SDS011;38624;53.242;6.974;2023-04-15T04:37:59;16.20;;;11.55;;
52730;SDS011;38624;53.242;6.974;2023-04-15T04:40:25;16.48;;;10.95;;
52730;SDS011;38624;53.242;6.974;2023-04-15T04:42:51;16.43;;;11.73;;
52730;SDS011;38624;53.242;6.974;2023-04-15T04:45:18;15.63;;;11.05;;
52730;SDS011;38624;53.242;6.974;2023-04-15T04:47:44;17.73;;;12.05;;
52730;SDS011;38624;53.242;6.974;2023-04-15T04:50:10;16.65;;;12.98;;
52730;SDS011;38624;53.242;6.974;2023-04-15T04:52:36;19.33;;;13.55;;
52730;SDS011;38624;53.242;6.974;2023-04-15T04:55:02;20.95;;;13.48;;
52730;SDS011;38624;53.242;6.974;2023-04-15T04:57:28;17.85;;;13.13;;
52730;SDS011;38624;53.242;6.974;2023-04-15T04:59:54;17.38;;;12.27;;
52730;SDS011;38624;53.242;6.974;2023-04-15T05:02:20;18.33;;;12.13;;
52730;SDS011;38624;53.242;6.974;2023-04-15T05:04:46;17.15;;;11.50;;
52730;SDS011;38624;53.242;6.974;2023-04-15T05:07:12;18.00;;;11.88;;
52730;SDS011;38624;53.242;6.974;2023-04-15T05:09:37;18.60;;;11.38;;
52730;SDS011;38624;53.242;6.974;2023-04-15T05:12:03;21.08;;;12.80;;
52730;SDS011;38624;53.242;6.974;2023-04-15T05:14:29;22.73;;;12.50;;
52730;SDS011;38624;53.242;6.974;2023-04-15T05:16:56;18.88;;;12.43;;
52730;SDS011;38624;53.242;6.974;2023-04-15T05:19:21;26.38;;;13.80;;
52730;SDS011;38624;53.242;6.974;2023-04-15T05:21:47;22.33;;;13.77;;
52730;SDS011;38624;53.242;6.974;2023-04-15T05:24:13;25.20;;;15.40;;
52730;SDS011;38624;53.242;6.974;2023-04-15T05:26:39;23.27;;;14.45;;
52730;SDS011;38624;53.242;6.974;2023-04-15T05:29:05;21.95;;;11.80;;
52730;SDS011;38624;53.242;6.974;2023-04-15T05:31:31;22.65;;;13.68;;
52730;SDS011;38624;53.242;6.974;2023-04-15T05:33:56;22.30;;;11.95;;
52730;SDS011;38624;53.242;6.974;2023-04-15T05:36:22;17.85;;;10.95;;
52730;SDS011;38624;53.242;6.974;2023-04-15T05:38:48;15.18;;;8.88;;
52730;SDS011;38624;53.242;6.974;2023-04-15T05:41:13;15.38;;;7.53;;
52730;SDS011;38624;53.242;6.974;2023-04-15T05:43:42;13.00;;;8.18;;
52730;SDS011;38624;53.242;6.974;2023-04-15T05:46:08;14.55;;;9.77;;
52730;SDS011;38624;53.242;6.974;2023-04-15T05:48:33;16.02;;;9.85;;
52730;SDS011;38624;53.242;6.974;2023-04-15T05:50:59;12.40;;;7.85;;
52730;SDS011;38624;53.242;6.974;2023-04-15T05:53:25;14.18;;;8.68;;
52730;SDS011;38624;53.242;6.974;2023-04-15T05:55:51;11.93;;;7.53;;
52730;SDS011;38624;53.242;6.974;2023-04-15T05:58:16;16.33;;;9.40;;
52730;SDS011;38624;53.242;6.974;2023-04-15T06:00:42;14.27;;;9.27;;
52730;SDS011;38624;53.242;6.974;2023-04-15T06:03:09;14.20;;;9.05;;
52730;SDS011;38624;53.242;6.974;2023-04-15T06:05:35;14.80;;;9.65;;
52730;SDS011;38624;53.242;6.974;2023-04-15T06:08:01;13.73;;;8.95;;
52730;SDS011;38624;53.242;6.974;2023-04-15T06:10:27;14.75;;;9.13;;
52730;SDS011;38624;53.242;6.974;2023-04-15T06:12:52;12.57;;;9.20;;
52730;SDS011;38624;53.242;6.974;2023-04-15T06:15:18;13.63;;;8.88;;
52730;SDS011;38624;53.242;6.974;2023-04-15T06:17:44;12.65;;;8.25;;
52730;SDS011;38624;53.242;6.974;2023-04-15T06:20:10;13.82;;;8.48;;
52730;SDS011;38624;53.242;6.974;2023-04-15T06:22:36;14.68;;;9.48;;
52730;SDS011;38624;53.242;6.974;2023-04-15T06:25:03;14.73;;;8.60;;
52730;SDS011;38624;53.242;6.974;2023-04-15T06:27:29;15.40;;;8.93;;
52730;SDS011;38624;53.242;6.974;2023-04-15T06:29:55;15.57;;;9.23;;
52730;SDS011;38624;53.242;6.974;2023-04-15T06:32:20;15.85;;;8.80;;
52730;SDS011;38624;53.242;6.974;2023-04-15T06:34:46;14.63;;;8.88;;
52730;SDS011;38624;53.242;6.974;2023-04-15T06:37:12;14.60;;;9.70;;
52730;SDS011;38624;53.242;6.974;2023-04-15T06:39:40;13.07;;;9.23;;
52730;SDS011;38624;53.242;6.974;2023-04-15T06:42:07;12.10;;;7.85;;
52730;SDS011;38624;53.242;6.974;2023-04-15T06:44:33;14.20;;;7.90;;
52730;SDS011;38624;53.242;6.974;2023-04-15T06:47:00;12.18;;;7.93;;
52730;SDS011;38624;53.242;6.974;2023-04-15T06:49:26;8.48;;;6.30;;
52730;SDS011;38624;53.242;6.974;2023-04-15T06:51:52;9.02;;;5.45;;
52730;SDS011;38624;53.242;6.974;2023-04-15T06:54:17;10.07;;;5.20;;
52730;SDS011;38624;53.242;6.974;2023-04-15T06:56:43;9.38;;;5.68;;
52730;SDS011;38624;53.242;6.974;2023-04-15T06:59:09;6.95;;;5.40;;
52730;SDS011;38624;53.242;6.974;2023-04-15T07:01:34;10.82;;;5.78;;
52730;SDS011;38624;53.242;6.974;2023-04-15T07:04:00;10.63;;;6.22;;
52730;SDS011;38624;53.242;6.974;2023-04-15T07:06:26;9.50;;;5.65;;
52730;SDS011;38624;53.242;6.974;2023-04-15T07:08:52;8.48;;;4.70;;
52730;SDS011;38624;53.242;6.974;2023-04-15T07:11:18;7.30;;;4.93;;
52730;SDS011;38624;53.242;6.974;2023-04-15T07:13:45;8.57;;;5.18;;
52730;SDS011;38624;53.242;6.974;2023-04-15T07:16:10;6.70;;;4.53;;
52730;SDS011;38624;53.242;6.974;2023-04-15T07:18:36;9.60;;;5.38;;
52730;SDS011;38624;53.242;6.974;2023-04-15T07:21:02;6.95;;;4.90;;
52730;SDS011;38624;53.242;6.974;2023-04-15T07:23:28;6.80;;;4.70;;
52730;SDS011;38624;53.242;6.974;2023-04-15T07:25:54;7.20;;;4.60;;
52730;SDS011;38624;53.242;6.974;2023-04-15T07:28:19;9.07;;;4.90;;
52730;SDS011;38624;53.242;6.974;2023-04-15T07:30:45;8.20;;;4.80;;
52730;SDS011;38624;53.242;6.974;2023-04-15T07:33:11;5.65;;;4.05;;
52730;SDS011;38624;53.242;6.974;2023-04-15T07:35:37;6.80;;;4.03;;
52730;SDS011;38624;53.242;6.974;2023-04-15T07:38:03;6.28;;;3.45;;
52730;SDS011;38624;53.242;6.974;2023-04-15T07:40:28;6.40;;;3.92;;
52730;SDS011;38624;53.242;6.974;2023-04-15T07:42:54;4.78;;;3.33;;
52730;SDS011;38624;53.242;6.974;2023-04-15T07:45:22;7.20;;;4.07;;
52730;SDS011;38624;53.242;6.974;2023-04-15T07:47:48;9.55;;;5.28;;
52730;SDS011;38624;53.242;6.974;2023-04-15T07:50:15;5.95;;;3.83;;
52730;SDS011;38624;53.242;6.974;2023-04-15T07:52:41;5.50;;;3.43;;
52730;SDS011;38624;53.242;6.974;2023-04-15T07:55:08;7.40;;;3.78;;
52730;SDS011;38624;53.242;6.974;2023-04-15T07:57:34;5.00;;;3.72;;
52730;SDS011;38624;53.242;6.974;2023-04-15T08:00:01;7.78;;;3.63;;
52730;SDS011;38624;53.242;6.974;2023-04-15T08:02:31;5.65;;;2.83;;
52730;SDS011;38624;53.242;6.974;2023-04-15T08:04:57;4.85;;;2.92;;
52730;SDS011;38624;53.242;6.974;2023-04-15T08:07:23;5.10;;;3.05;;
52730;SDS011;38624;53.242;6.974;2023-04-15T08:09:50;4.45;;;3.22;;
52730;SDS011;38624;53.242;6.974;2023-04-15T08:12:16;5.00;;;3.47;;
52730;SDS011;38624;53.242;6.974;2023-04-15T08:14:42;6.07;;;3.30;;
52730;SDS011;38624;53.242;6.974;2023-04-15T08:17:07;5.30;;;2.85;;
52730;SDS011;38624;53.242;6.974;2023-04-15T08:19:33;5.95;;;2.72;;
52730;SDS011;38624;53.242;6.974;2023-04-15T08:21:59;7.32;;;2.70;;
52730;SDS011;38624;53.242;6.974;2023-04-15T08:24:25;2.92;;;2.10;;
52730;SDS011;38624;53.242;6.974;2023-04-15T08:26:51;3.58;;;2.25;;
52730;SDS011;38624;53.242;6.974;2023-04-15T08:29:17;6.15;;;2.60;;
52730;SDS011;38624;53.242;6.974;2023-04-15T08:31:43;6.07;;;2.47;;
52730;SDS011;38624;53.242;6.974;2023-04-15T08:34:12;4.00;;;2.50;;
52730;SDS011;38624;53.242;6.974;2023-04-15T08:36:39;7.20;;;2.90;;
52730;SDS011;38624;53.242;6.974;2023-04-15T08:39:05;3.42;;;2.28;;
52730;SDS011;38624;53.242;6.974;2023-04-15T08:41:44;6.38;;;2.60;;
52730;SDS011;38624;53.242;6.974;2023-04-15T08:44:12;5.63;;;2.50;;
52730;SDS011;38624;53.242;6.974;2023-04-15T08:46:38;5.63;;;2.40;;
52730;SDS011;38624;53.242;6.974;2023-04-15T08:49:09;9.88;;;3.00;;
52730;SDS011;38624;53.242;6.974;2023-04-15T08:51:39;5.70;;;2.45;;
52730;SDS011;38624;53.242;6.974;2023-04-15T08:54:05;5.82;;;2.28;;
52730;SDS011;38624;53.242;6.974;2023-04-15T08:56:32;4.32;;;2.10;;
52730;SDS011;38624;53.242;6.974;2023-04-15T08:58:59;5.07;;;2.47;;
52730;SDS011;38624;53.242;6.974;2023-04-15T09:01:25;4.30;;;2.10;;
52730;SDS011;38624;53.242;6.974;2023-04-15T09:03:51;5.35;;;2.15;;
52730;SDS011;38624;53.242;6.974;2023-04-15T09:06:20;4.45;;;2.25;;
52730;SDS011;38624;53.242;6.974;2023-04-15T09:08:47;4.65;;;2.30;;
52730;SDS011;38624;53.242;6.974;2023-04-15T09:11:13;4.97;;;2.10;;
52730;SDS011;38624;53.242;6.974;2023-04-15T09:13:39;5.35;;;2.08;;
52730;SDS011;38624;53.242;6.974;2023-04-15T09:16:05;6.65;;;2.42;;
52730;SDS011;38624;53.242;6.974;2023-04-15T09:21:08;4.68;;;2.33;;
52730;SDS011;38624;53.242;6.974;2023-04-15T09:23:36;4.90;;;2.30;;
52730;SDS011;38624;53.242;6.974;2023-04-15T09:26:03;7.60;;;2.58;;
52730;SDS011;38624;53.242;6.974;2023-04-15T09:28:29;6.45;;;2.17;;
52730;SDS011;38624;53.242;6.974;2023-04-15T09:30:58;6.32;;;2.17;;
52730;SDS011;38624;53.242;6.974;2023-04-15T09:33:25;7.97;;;2.60;;
52730;SDS011;38624;53.242;6.974;2023-04-15T09:36:00;7.18;;;2.33;;
52730;SDS011;38624;53.242;6.974;2023-04-15T09:38:30;10.03;;;2.97;;
52730;SDS011;38624;53.242;6.974;2023-04-15T09:40:56;8.00;;;2.40;;
52730;SDS011;38624;53.242;6.974;2023-04-15T09:43:22;4.95;;;2.20;;
52730;SDS011;38624;53.242;6.974;2023-04-15T09:46:03;6.70;;;2.47;;
52730;SDS011;38624;53.242;6.974;2023-04-15T09:48:29;6.10;;;2.10;;
52730;SDS011;38624;53.242;6.974;2023-04-15T09:50:59;6.50;;;2.15;;
52730;SDS011;38624;53.242;6.974;2023-04-15T09:53:26;5.85;;;2.40;;
52730;SDS011;38624;53.242;6.974;2023-04-15T09:55:53;5.50;;;2.20;;
52730;SDS011;38624;53.242;6.974;2023-04-15T09:58:21;6.03;;;2.40;;
52730;SDS011;38624;53.242;6.974;2023-04-15T10:00:52;6.40;;;2.10;;
52730;SDS011;38624;53.242;6.974;2023-04-15T10:03:22;5.43;;;2.33;;
52730;SDS011;38624;53.242;6.974;2023-04-15T10:05:54;4.07;;;2.28;;
52730;SDS011;38624;53.242;6.974;2023-04-15T10:08:21;5.00;;;1.92;;
52730;SDS011;38624;53.242;6.974;2023-04-15T10:10:49;6.82;;;2.25;;
52730;SDS011;38624;53.242;6.974;2023-04-15T10:16:00;5.32;;;2.17;;
52730;SDS011;38624;53.242;6.974;2023-04-15T10:18:35;3.83;;;2.20;;
52730;SDS011;38624;53.242;6.974;2023-04-15T10:21:04;4.88;;;2.20;;
52730;SDS011;38624;53.242;6.974;2023-04-15T10:23:32;6.22;;;1.98;;
52730;SDS011;38624;53.242;6.974;2023-04-15T10:25:58;4.00;;;2.15;;
52730;SDS011;38624;53.242;6.974;2023-04-15T10:28:25;6.50;;;2.13;;
52730;SDS011;38624;53.242;6.974;2023-04-15T10:30:51;4.80;;;2.10;;
52730;SDS011;38624;53.242;6.974;2023-04-15T10:33:19;6.28;;;2.05;;
52730;SDS011;38624;53.242;6.974;2023-04-15T10:35:47;7.22;;;2.28;;
52730;SDS011;38624;53.242;6.974;2023-04-15T10:41:21;4.75;;;1.92;;
52730;SDS011;38624;53.242;6.974;2023-04-15T10:46:18;6.18;;;2.20;;
52730;SDS011;38624;53.242;6.974;2023-04-15T10:48:50;6.05;;;2.33;;
52730;SDS011;38624;53.242;6.974;2023-04-15T10:51:25;5.55;;;2.53;;
52730;SDS011;38624;53.242;6.974;2023-04-15T10:53:58;7.75;;;2.30;;
52730;SDS011;38624;53.242;6.974;2023-04-15T10:56:24;4.35;;;2.08;;
52730;SDS011;38624;53.242;6.974;2023-04-15T10:58:53;6.20;;;2.17;;
52730;SDS011;38624;53.242;6.974;2023-04-15T11:01:19;6.32;;;2.35;;
52730;SDS011;38624;53.242;6.974;2023-04-15T11:03:47;4.05;;;2.10;;
52730;SDS011;38624;53.242;6.974;2023-04-15T11:06:13;6.40;;;1.98;;
52730;SDS011;38624;53.242;6.974;2023-04-15T11:08:55;8.45;;;2.50;;
52730;SDS011;38624;53.242;6.974;2023-04-15T11:11:23;7.20;;;2.25;;
52730;SDS011;38624;53.242;6.974;2023-04-15T11:14:28;7.55;;;2.60;;
52730;SDS011;38624;53.242;6.974;2023-04-15T11:16:54;7.95;;;1.90;;
52730;SDS011;38624;53.242;6.974;2023-04-15T11:19:20;4.60;;;2.20;;
52730;SDS011;38624;53.242;6.974;2023-04-15T11:21:46;9.82;;;3.00;;
52730;SDS011;38624;53.242;6.974;2023-04-15T11:24:22;9.48;;;2.80;;
52730;SDS011;38624;53.242;6.974;2023-04-15T11:26:56;6.97;;;2.45;;
52730;SDS011;38624;53.242;6.974;2023-04-15T11:29:27;8.25;;;2.30;;
52730;SDS011;38624;53.242;6.974;2023-04-15T11:32:06;6.95;;;1.80;;
52730;SDS011;38624;53.242;6.974;2023-04-15T11:34:33;4.72;;;2.03;;
52730;SDS011;38624;53.242;6.974;2023-04-15T11:37:02;6.00;;;1.73;;
52730;SDS011;38624;53.242;6.974;2023-04-15T11:39:29;9.57;;;2.40;;
52730;SDS011;38624;53.242;6.974;2023-04-15T11:41:55;7.35;;;2.10;;
52730;SDS011;38624;53.242;6.974;2023-04-15T11:44:21;7.20;;;2.35;;
52730;SDS011;38624;53.242;6.974;2023-04-15T11:46:47;7.78;;;2.22;;
52730;SDS011;38624;53.242;6.974;2023-04-15T11:49:24;7.25;;;2.42;;
52730;SDS011;38624;53.242;6.974;2023-04-15T11:51:54;9.02;;;2.55;;
52730;SDS011;38624;53.242;6.974;2023-04-15T11:54:20;7.82;;;2.03;;
52730;SDS011;38624;53.242;6.974;2023-04-15T11:56:49;5.55;;;1.67;;
52730;SDS011;38624;53.242;6.974;2023-04-15T11:59:15;5.97;;;1.95;;
52730;SDS011;38624;53.242;6.974;2023-04-15T12:01:41;7.07;;;2.22;;
52730;SDS011;38624;53.242;6.974;2023-04-15T12:04:14;7.95;;;2.05;;
52730;SDS011;38624;53.242;6.974;2023-04-15T12:06:43;10.00;;;2.35;;
52730;SDS011;38624;53.242;6.974;2023-04-15T12:09:12;9.30;;;2.53;;
52730;SDS011;38624;53.242;6.974;2023-04-15T12:11:49;5.93;;;2.33;;
52730;SDS011;38624;53.242;6.974;2023-04-15T12:16:53;8.85;;;2.13;;
52730;SDS011;38624;53.242;6.974;2023-04-15T12:19:23;9.45;;;2.20;;
52730;SDS011;38624;53.242;6.974;2023-04-15T12:21:50;8.60;;;2.13;;
52730;SDS011;38624;53.242;6.974;2023-04-15T12:24:19;3.97;;;1.90;;
52730;SDS011;38624;53.242;6.974;2023-04-15T12:26:52;9.15;;;2.00;;
52730;SDS011;38624;53.242;6.974;2023-04-15T12:29:25;9.85;;;2.13;;
52730;SDS011;38624;53.242;6.974;2023-04-15T12:31:56;8.00;;;2.00;;
52730;SDS011;38624;53.242;6.974;2023-04-15T12:34:34;7.25;;;2.13;;
52730;SDS011;38624;53.242;6.974;2023-04-15T12:37:09;8.10;;;2.30;;
52730;SDS011;38624;53.242;6.974;2023-04-15T12:39:36;9.10;;;2.38;;
52730;SDS011;38624;53.242;6.974;2023-04-15T12:42:03;10.20;;;2.70;;
52730;SDS011;38624;53.242;6.974;2023-04-15T12:44:29;5.50;;;2.13;;
52730;SDS011;38624;53.242;6.974;2023-04-15T12:46:55;10.32;;;2.55;;
52730;SDS011;38624;53.242;6.974;2023-04-15T12:49:22;8.68;;;2.60;;
52730;SDS011;38624;53.242;6.974;2023-04-15T12:51:48;10.13;;;2.40;;
52730;SDS011;38624;53.242;6.974;2023-04-15T12:56:41;14.07;;;2.42;;
52730;SDS011;38624;53.242;6.974;2023-04-15T12:59:08;7.32;;;2.50;;
52730;SDS011;38624;53.242;6.974;2023-04-15T13:01:33;7.65;;;3.08;;
52730;SDS011;38624;53.242;6.974;2023-04-15T13:04:00;12.05;;;2.45;;
52730;SDS011;38624;53.242;6.974;2023-04-15T13:06:26;6.50;;;2.30;;
52730;SDS011;38624;53.242;6.974;2023-04-15T13:08:53;6.88;;;2.40;;
52730;SDS011;38624;53.242;6.974;2023-04-15T13:11:19;8.67;;;1.93;;
52730;SDS011;38624;53.242;6.974;2023-04-15T13:13:46;7.03;;;2.10;;
52730;SDS011;38624;53.242;6.974;2023-04-15T13:16:12;9.35;;;2.28;;
52730;SDS011;38624;53.242;6.974;2023-04-15T13:18:38;6.03;;;2.15;;
52730;SDS011;38624;53.242;6.974;2023-04-15T13:21:04;7.10;;;2.45;;
52730;SDS011;38624;53.242;6.974;2023-04-15T13:23:32;8.70;;;2.50;;
52730;SDS011;38624;53.242;6.974;2023-04-15T13:25:58;9.80;;;2.42;;
52730;SDS011;38624;53.242;6.974;2023-04-15T13:28:23;7.25;;;2.50;;
52730;SDS011;38624;53.242;6.974;2023-04-15T13:30:49;10.05;;;2.35;;
52730;SDS011;38624;53.242;6.974;2023-04-15T13:33:15;12.05;;;2.78;;
52730;SDS011;38624;53.242;6.974;2023-04-15T13:35:42;8.70;;;2.90;;
52730;SDS011;38624;53.242;6.974;2023-04-15T13:38:07;9.00;;;2.30;;
52730;SDS011;38624;53.242;6.974;2023-04-15T13:40:33;7.88;;;2.58;;
52730;SDS011;38624;53.242;6.974;2023-04-15T13:42:59;10.82;;;2.65;;
52730;SDS011;38624;53.242;6.974;2023-04-15T13:45:26;9.02;;;2.40;;
52730;SDS011;38624;53.242;6.974;2023-04-15T13:47:52;9.23;;;2.80;;
52730;SDS011;38624;53.242;6.974;2023-04-15T13:50:18;9.07;;;2.40;;
52730;SDS011;38624;53.242;6.974;2023-04-15T13:52:44;10.60;;;2.75;;
52730;SDS011;38624;53.242;6.974;2023-04-15T13:55:10;7.80;;;2.30;;
52730;SDS011;38624;53.242;6.974;2023-04-15T13:57:36;9.57;;;2.45;;
52730;SDS011;38624;53.242;6.974;2023-04-15T14:00:02;11.32;;;2.58;;
52730;SDS011;38624;53.242;6.974;2023-04-15T14:02:28;9.95;;;2.45;;
52730;SDS011;38624;53.242;6.974;2023-04-15T14:04:54;7.73;;;3.03;;
52730;SDS011;38624;53.242;6.974;2023-04-15T14:07:21;12.80;;;3.30;;
52730;SDS011;38624;53.242;6.974;2023-04-15T14:09:47;12.00;;;2.83;;
52730;SDS011;38624;53.242;6.974;2023-04-15T14:12:13;9.82;;;2.95;;
52730;SDS011;38624;53.242;6.974;2023-04-15T14:14:39;9.48;;;2.97;;
52730;SDS011;38624;53.242;6.974;2023-04-15T14:17:05;13.15;;;2.88;;
52730;SDS011;38624;53.242;6.974;2023-04-15T14:19:31;13.63;;;3.08;;
52730;SDS011;38624;53.242;6.974;2023-04-15T14:21:57;8.68;;;2.95;;
52730;SDS011;38624;53.242;6.974;2023-04-15T14:24:23;9.48;;;3.20;;
52730;SDS011;38624;53.242;6.974;2023-04-15T14:26:49;7.80;;;2.83;;
52730;SDS011;38624;53.242;6.974;2023-04-15T14:29:14;12.25;;;2.83;;
52730;SDS011;38624;53.242;6.974;2023-04-15T14:31:41;9.18;;;3.28;;
52730;SDS011;38624;53.242;6.974;2023-04-15T14:34:09;10.15;;;3.03;;
52730;SDS011;38624;53.242;6.974;2023-04-15T14:36:35;13.60;;;3.53;;
52730;SDS011;38624;53.242;6.974;2023-04-15T14:39:02;11.45;;;3.53;;
52730;SDS011;38624;53.242;6.974;2023-04-15T14:41:28;11.43;;;3.38;;
52730;SDS011;38624;53.242;6.974;2023-04-15T14:43:54;8.57;;;2.88;;
52730;SDS011;38624;53.242;6.974;2023-04-15T14:46:20;11.85;;;3.00;;
52730;SDS011;38624;53.242;6.974;2023-04-15T14:48:46;10.03;;;2.83;;
52730;SDS011;38624;53.242;6.974;2023-04-15T14:51:13;11.57;;;3.40;;
52730;SDS011;38624;53.242;6.974;2023-04-15T14:56:05;10.73;;;3.67;;
52730;SDS011;38624;53.242;6.974;2023-04-15T14:58:31;13.35;;;3.88;;
52730;SDS011;38624;53.242;6.974;2023-04-15T15:00:57;11.38;;;3.25;;